createdAt,value
2018-03-01T00:00:34.750Z,21.9
2018-03-01T00:01:36.417Z,23.2
2018-03-01T00:02:38.131Z,23.0
2018-03-01T00:03:39.846Z,23.6
2018-03-01T00:04:42.443Z,23.9
2018-03-01T00:05:44.098Z,22.6
2018-03-01T00:06:45.780Z,22.8
2018-03-01T00:07:47.506Z,22.9
2018-03-01T00:08:49.144Z,22.0
2018-03-01T00:09:50.777Z,21.8
2018-03-01T00:10:52.432Z,21.7
2018-03-01T00:11:54.140Z,22.5
2018-03-01T00:12:55.770Z,21.8
2018-03-01T00:13:57.444Z,21.7
2018-03-01T00:14:59.192Z,22.0
2018-03-01T00:16:00.855Z,22.7
2018-03-01T00:17:02.517Z,22.4
2018-03-01T00:18:04.174Z,22.5
2018-03-01T00:19:05.898Z,20.9
2018-03-01T00:20:07.659Z,22.5
2018-03-01T00:21:09.299Z,21.3
2018-03-01T00:22:10.952Z,22.4
2018-03-01T00:23:12.603Z,21.7
2018-03-01T00:24:14.325Z,21.8
2018-03-01T00:25:15.965Z,21.3
2018-03-01T00:26:17.630Z,23.4
2018-03-01T00:27:19.259Z,23.5
2018-03-01T00:28:20.902Z,22.5
2018-03-01T00:29:22.636Z,22.4
2018-03-01T00:30:24.275Z,21.9
2018-03-01T00:31:25.912Z,23.0
2018-03-01T00:32:27.558Z,23.1
2018-03-01T00:33:29.190Z,22.5
2018-03-01T00:34:30.899Z,21.4
2018-03-01T00:35:32.519Z,21.5
2018-03-01T00:36:34.188Z,21.8
2018-03-01T00:37:35.928Z,21.9
2018-03-01T00:38:37.571Z,22.0
2018-03-01T00:39:45.842Z,21.4
2018-03-01T00:40:47.520Z,21.9
2018-03-01T00:41:49.222Z,20.9
2018-03-01T00:42:50.910Z,20.9
2018-03-01T00:43:52.616Z,21.4
2018-03-01T00:44:54.342Z,22.2
2018-03-01T00:45:56.179Z,21.3
2018-03-01T00:46:57.917Z,21.7
2018-03-01T00:47:59.560Z,21.2
2018-03-01T00:49:01.266Z,21.3
2018-03-01T00:50:02.976Z,22.1
2018-03-01T00:51:04.658Z,21.5
2018-03-01T00:52:06.334Z,21.1
2018-03-01T00:53:07.970Z,21.8
2018-03-01T00:54:09.600Z,21.4
2018-03-01T00:55:11.252Z,21.2
2018-03-01T00:56:13.057Z,21.2
2018-03-01T00:57:14.863Z,20.3
2018-03-01T00:58:16.595Z,21.0
2018-03-01T00:59:18.311Z,20.3
2018-03-01T01:00:20.029Z,21.4
2018-03-01T01:01:21.880Z,21.6
2018-03-01T01:02:23.589Z,21.7
2018-03-01T01:03:25.288Z,20.9
2018-03-01T01:04:26.967Z,21.0
2018-03-01T01:05:28.644Z,21.2
2018-03-01T01:06:30.355Z,21.4
2018-03-01T01:07:32.090Z,22.3
2018-03-01T01:08:33.777Z,21.0
2018-03-01T01:09:35.497Z,22.1
2018-03-01T01:10:37.171Z,20.4
2018-03-01T01:11:38.803Z,22.0
2018-03-01T01:12:40.433Z,21.1
2018-03-01T01:13:42.064Z,21.5
2018-03-01T01:14:43.753Z,21.1
2018-03-01T01:15:45.537Z,20.5
2018-03-01T01:16:47.328Z,20.4
2018-03-01T01:17:49.035Z,22.1
2018-03-01T01:18:50.732Z,21.3
2018-03-01T01:19:52.382Z,20.9
2018-03-01T01:20:54.068Z,21.5
2018-03-01T01:21:55.751Z,20.3
2018-03-01T01:22:57.438Z,21.1
2018-03-01T01:23:59.257Z,21.1
2018-03-01T01:25:00.936Z,21.6
2018-03-01T01:26:02.659Z,21.7
2018-03-01T01:27:04.321Z,21.6
2018-03-01T01:28:06.005Z,21.4
2018-03-01T01:29:07.710Z,21.1
2018-03-01T01:30:09.440Z,20.5
2018-03-01T01:31:11.174Z,21.7
2018-03-01T01:32:12.792Z,20.8
2018-03-01T01:33:14.527Z,20.7
2018-03-01T01:34:16.211Z,21.1
2018-03-01T01:35:17.930Z,21.7
2018-03-01T01:36:19.652Z,21.0
2018-03-01T01:37:21.419Z,20.7
2018-03-01T01:38:23.105Z,21.4
2018-03-01T01:39:24.813Z,19.8
2018-03-01T01:40:26.498Z,20.5
2018-03-01T01:41:28.236Z,20.3
2018-03-01T01:42:29.935Z,20.7
2018-03-01T01:43:31.660Z,21.1
2018-03-01T01:44:33.370Z,20.7
2018-03-01T01:45:35.048Z,21.7
2018-03-01T01:46:36.796Z,21.4
2018-03-01T01:47:38.526Z,20.6
2018-03-01T01:48:40.214Z,20.7
2018-03-01T01:49:41.963Z,20.8
2018-03-01T01:50:43.645Z,21.0
2018-03-01T01:51:45.397Z,21.4
2018-03-01T01:52:47.041Z,21.2
2018-03-01T01:53:48.810Z,21.2
2018-03-01T01:54:50.476Z,21.3
2018-03-01T01:55:52.132Z,21.4
2018-03-01T01:56:53.852Z,20.0
2018-03-01T01:57:55.498Z,21.6
2018-03-01T01:58:57.196Z,21.0
2018-03-01T01:59:58.829Z,20.4
2018-03-01T02:01:00.498Z,21.1
2018-03-01T02:02:02.160Z,20.4
2018-03-01T02:03:03.787Z,20.8
2018-03-01T02:04:05.412Z,20.8
2018-03-01T02:05:07.045Z,21.2
2018-03-01T02:06:08.678Z,20.3
2018-03-01T02:07:10.333Z,21.3
2018-03-01T02:08:11.965Z,21.1
2018-03-01T02:09:13.639Z,20.2
2018-03-01T02:10:15.340Z,21.0
2018-03-01T02:11:17.102Z,20.7
2018-03-01T02:12:18.738Z,20.1
2018-03-01T02:13:20.403Z,21.2
2018-03-01T02:14:22.087Z,20.0
2018-03-01T02:15:23.858Z,21.1
2018-03-01T02:16:25.550Z,20.4
2018-03-01T02:17:27.224Z,21.1
2018-03-01T02:18:28.871Z,20.4
2018-03-01T02:19:30.534Z,20.5
2018-03-01T02:20:32.157Z,20.7
2018-03-01T02:21:33.793Z,19.9
2018-03-01T02:22:35.466Z,20.5
2018-03-01T02:23:37.106Z,20.7
2018-03-01T02:24:38.741Z,20.0
2018-03-01T02:25:40.367Z,19.8
2018-03-01T02:26:42.029Z,20.5
2018-03-01T02:27:43.660Z,20.1
2018-03-01T02:28:45.276Z,20.6
2018-03-01T02:29:46.899Z,20.6
2018-03-01T02:30:48.530Z,20.0
2018-03-01T02:31:50.168Z,19.7
2018-03-01T02:32:51.811Z,21.2
2018-03-01T02:33:53.569Z,21.0
2018-03-01T02:34:55.239Z,19.5
2018-03-01T02:35:56.905Z,19.4
2018-03-01T02:36:58.592Z,19.2
2018-03-01T02:38:00.257Z,20.3
2018-03-01T02:39:01.975Z,21.0
2018-03-01T02:40:03.711Z,21.0
2018-03-01T02:41:05.431Z,20.0
2018-03-01T02:42:07.057Z,21.2
2018-03-01T02:43:08.843Z,20.7
2018-03-01T02:44:10.665Z,20.4
2018-03-01T02:45:12.301Z,20.7
2018-03-01T02:46:14.056Z,21.0
2018-03-01T02:47:15.789Z,19.8
2018-03-01T02:48:17.446Z,19.8
2018-03-01T02:49:19.136Z,20.2
2018-03-01T02:50:20.786Z,21.1
2018-03-01T02:51:22.453Z,19.4
2018-03-01T02:52:24.197Z,20.3
2018-03-01T02:53:25.915Z,20.2
2018-03-01T02:54:27.614Z,20.1
2018-03-01T02:55:29.345Z,19.7
2018-03-01T02:56:31.090Z,20.0
2018-03-01T02:57:32.877Z,20.0
2018-03-01T02:58:34.556Z,20.0
2018-03-01T02:59:36.306Z,20.3
2018-03-01T03:00:37.973Z,20.4
2018-03-01T03:01:39.741Z,20.3
2018-03-01T03:02:41.443Z,20.8
2018-03-01T03:03:43.145Z,19.7
2018-03-01T03:04:44.817Z,20.0
2018-03-01T03:05:46.483Z,20.2
2018-03-01T03:06:48.118Z,19.4
2018-03-01T03:07:49.796Z,20.1
2018-03-01T03:08:51.469Z,19.7
2018-03-01T03:09:53.132Z,19.7
2018-03-01T03:10:54.802Z,19.5
2018-03-01T03:11:56.468Z,19.8
2018-03-01T03:12:58.162Z,20.0
2018-03-01T03:13:59.834Z,19.8
2018-03-01T03:15:01.507Z,20.0
2018-03-01T03:16:03.209Z,20.0
2018-03-01T03:17:04.855Z,19.6
2018-03-01T03:18:06.516Z,20.2
2018-03-01T03:19:08.188Z,20.0
2018-03-01T03:20:09.918Z,19.0
2018-03-01T03:21:11.633Z,19.5
2018-03-01T03:22:13.310Z,20.5
2018-03-01T03:23:15.022Z,19.6
2018-03-01T03:24:16.731Z,19.2
2018-03-01T03:25:18.446Z,19.7
2018-03-01T03:26:20.088Z,19.7
2018-03-01T03:27:21.724Z,19.1
2018-03-01T03:28:23.439Z,20.8
2018-03-01T03:29:25.119Z,19.6
2018-03-01T03:30:26.835Z,20.0
2018-03-01T03:31:28.545Z,19.1
2018-03-01T03:32:30.244Z,19.1
2018-03-01T03:33:31.901Z,19.9
2018-03-01T03:34:33.592Z,18.6
2018-03-01T03:35:35.283Z,19.2
2018-03-01T03:36:36.974Z,19.1
2018-03-01T03:37:38.657Z,19.4
2018-03-01T03:38:40.383Z,19.9
2018-03-01T03:39:42.101Z,18.9
2018-03-01T03:40:43.783Z,18.9
2018-03-01T03:41:45.540Z,19.2
2018-03-01T03:42:47.243Z,20.2
2018-03-01T03:43:48.958Z,19.7
2018-03-01T03:44:50.681Z,18.4
2018-03-01T03:45:52.351Z,19.3
2018-03-01T03:46:54.061Z,18.5
2018-03-01T03:47:55.727Z,19.1
2018-03-01T03:48:57.352Z,19.3
2018-03-01T03:49:59.060Z,19.7
2018-03-01T03:51:00.667Z,19.7
2018-03-01T03:52:02.323Z,18.2
2018-03-01T03:53:03.954Z,19.7
2018-03-01T03:54:05.667Z,19.9
2018-03-01T03:55:07.363Z,19.0
2018-03-01T03:56:09.066Z,18.3
2018-03-01T03:57:10.789Z,20.6
2018-03-01T03:58:12.467Z,19.7
2018-03-01T03:59:14.217Z,17.7
2018-03-01T04:00:15.945Z,19.2
2018-03-01T04:01:17.767Z,19.7
2018-03-01T04:02:19.457Z,20.1
2018-03-01T04:03:21.120Z,19.6
2018-03-01T04:04:22.754Z,19.8
2018-03-01T04:05:24.423Z,19.6
2018-03-01T04:06:26.098Z,18.9
2018-03-01T04:07:27.730Z,18.7
2018-03-01T04:08:29.373Z,20.3
2018-03-01T04:09:31.068Z,18.9
2018-03-01T04:10:32.758Z,19.1
2018-03-01T04:11:34.443Z,19.5
2018-03-01T04:12:36.162Z,19.3
2018-03-01T04:13:37.908Z,20.6
2018-03-01T04:14:39.545Z,19.1
2018-03-01T04:15:41.243Z,20.2
2018-03-01T04:16:42.932Z,19.4
2018-03-01T04:17:44.628Z,18.5
2018-03-01T04:18:46.321Z,19.3
2018-03-01T04:19:47.969Z,19.7
2018-03-01T04:20:49.628Z,19.9
2018-03-01T04:21:51.278Z,19.5
2018-03-01T04:22:52.920Z,20.1
2018-03-01T04:23:54.552Z,19.6
2018-03-01T04:24:56.177Z,19.0
2018-03-01T04:25:57.841Z,19.6
2018-03-01T04:26:59.521Z,19.7
2018-03-01T04:28:01.154Z,19.4
2018-03-01T04:29:02.784Z,20.1
2018-03-01T04:30:04.445Z,18.6
2018-03-01T04:31:06.079Z,19.5
2018-03-01T04:32:07.722Z,20.0
2018-03-01T04:33:09.398Z,19.5
2018-03-01T04:34:11.046Z,19.2
2018-03-01T04:35:12.723Z,19.7
2018-03-01T04:36:14.424Z,19.5
2018-03-01T04:37:16.185Z,19.9
2018-03-01T04:38:17.856Z,20.5
2018-03-01T04:39:19.558Z,19.7
2018-03-01T04:40:21.256Z,19.5
2018-03-01T04:41:22.968Z,19.6
2018-03-01T04:42:24.651Z,19.1
2018-03-01T04:43:26.361Z,19.4
2018-03-01T04:44:28.062Z,19.0
2018-03-01T04:45:29.813Z,19.2
2018-03-01T04:46:31.536Z,19.3
2018-03-01T04:47:33.220Z,19.8
2018-03-01T04:48:34.861Z,19.8
2018-03-01T04:49:36.507Z,19.9
2018-03-01T04:50:38.146Z,20.4
2018-03-01T04:51:39.806Z,19.4
2018-03-01T04:52:41.504Z,18.3
2018-03-01T04:53:43.156Z,19.3
2018-03-01T04:54:44.783Z,19.0
2018-03-01T04:55:46.452Z,19.5
2018-03-01T04:56:48.086Z,19.3
2018-03-01T04:57:49.760Z,19.4
2018-03-01T04:58:51.445Z,19.8
2018-03-01T04:59:53.156Z,19.2
2018-03-01T05:00:54.835Z,20.0
2018-03-01T05:01:56.461Z,19.7
2018-03-01T05:02:58.106Z,19.9
2018-03-01T05:03:59.758Z,19.1
2018-03-01T05:05:01.410Z,19.6
2018-03-01T05:06:03.100Z,20.3
2018-03-01T05:07:04.731Z,19.4
2018-03-01T05:08:06.372Z,19.7
2018-03-01T05:09:08.080Z,19.1
2018-03-01T05:10:09.723Z,20.3
2018-03-01T05:11:11.461Z,19.6
2018-03-01T05:12:13.093Z,19.8
2018-03-01T05:13:14.713Z,19.5
2018-03-01T05:14:16.340Z,20.1
2018-03-01T05:15:17.978Z,20.0
2018-03-01T05:16:19.612Z,19.9
2018-03-01T05:17:21.280Z,21.1
2018-03-01T05:18:22.957Z,20.1
2018-03-01T05:19:25.934Z,20.6
2018-03-01T05:20:28.812Z,19.6
2018-03-01T05:21:31.062Z,19.4
2018-03-01T05:22:33.446Z,20.5
2018-03-01T05:23:36.682Z,20.8
2018-03-01T05:24:40.901Z,19.7
2018-03-01T05:25:42.445Z,20.2
2018-03-01T05:26:44.241Z,20.4
2018-03-01T05:27:45.926Z,18.8
2018-03-01T05:28:47.755Z,20.3
2018-03-01T05:29:49.411Z,20.3
2018-03-01T05:30:51.200Z,19.8
2018-03-01T05:31:52.845Z,19.8
2018-03-01T05:32:54.507Z,19.7
2018-03-01T05:33:56.147Z,20.4
2018-03-01T05:34:57.803Z,19.4
2018-03-01T05:35:59.680Z,19.9
2018-03-01T05:37:01.333Z,20.7
2018-03-01T05:38:02.958Z,20.7
2018-03-01T05:39:05.986Z,19.7
2018-03-01T05:40:07.643Z,20.2
2018-03-01T05:41:09.327Z,21.5
2018-03-01T05:42:10.970Z,20.7
2018-03-01T05:43:12.595Z,18.8
2018-03-01T05:44:14.229Z,18.7
2018-03-01T05:45:17.337Z,19.5
2018-03-01T05:46:18.975Z,20.7
2018-03-01T05:47:20.656Z,19.2
2018-03-01T05:48:22.279Z,19.4
2018-03-01T05:49:23.908Z,19.4
2018-03-01T05:50:25.533Z,20.2
2018-03-01T05:51:27.167Z,19.6
2018-03-01T05:52:28.802Z,19.9
2018-03-01T05:53:30.445Z,19.1
2018-03-01T05:54:32.084Z,19.2
2018-03-01T05:55:33.704Z,19.4
2018-03-01T05:56:35.332Z,18.4
2018-03-01T05:57:36.953Z,19.6
2018-03-01T05:58:38.595Z,19.3
2018-03-01T05:59:40.222Z,20.4
2018-03-01T06:00:41.871Z,20.0
2018-03-01T06:01:43.503Z,20.1
2018-03-01T06:02:45.139Z,19.4
2018-03-01T06:03:46.762Z,19.5
2018-03-01T06:04:48.429Z,20.1
2018-03-01T06:05:50.069Z,18.9
2018-03-01T06:06:51.695Z,19.2
2018-03-01T06:07:53.330Z,20.2
2018-03-01T06:08:54.980Z,18.8
2018-03-01T06:09:56.599Z,19.5
2018-03-01T06:10:58.219Z,19.4
2018-03-01T06:11:59.843Z,19.6
2018-03-01T06:13:01.457Z,19.4
2018-03-01T06:14:03.133Z,19.1
2018-03-01T06:15:08.307Z,19.6
2018-03-01T06:16:09.973Z,20.2
2018-03-01T06:17:11.601Z,19.1
2018-03-01T06:18:13.236Z,18.5
2018-03-01T06:19:14.862Z,19.4
2018-03-01T06:20:16.490Z,19.4
2018-03-01T06:21:18.221Z,18.7
2018-03-01T06:22:19.847Z,19.5
2018-03-01T06:23:21.479Z,19.6
2018-03-01T06:24:23.102Z,19.5
2018-03-01T06:25:24.732Z,18.5
2018-03-01T06:26:26.358Z,20.2
2018-03-01T06:27:27.993Z,19.4
2018-03-01T06:28:29.621Z,19.8
2018-03-01T06:29:31.247Z,18.9
2018-03-01T06:30:32.873Z,18.8
2018-03-01T06:31:34.507Z,19.3
2018-03-01T06:32:36.145Z,19.3
2018-03-01T06:33:37.773Z,18.6
2018-03-01T06:34:39.402Z,18.7
2018-03-01T06:35:41.025Z,18.5
2018-03-01T06:36:42.651Z,18.3
2018-03-01T06:37:44.296Z,19.0
2018-03-01T06:38:45.937Z,19.2
2018-03-01T06:39:47.574Z,19.6
2018-03-01T06:40:49.224Z,18.7
2018-03-01T06:41:50.866Z,19.5
2018-03-01T06:42:52.527Z,18.2
2018-03-01T06:43:54.148Z,18.8
2018-03-01T06:44:55.773Z,17.9
2018-03-01T06:45:57.405Z,20.9
2018-03-01T06:46:59.056Z,17.9
2018-03-01T06:48:00.724Z,20.0
2018-03-01T06:49:02.360Z,18.0
2018-03-01T06:50:03.986Z,18.9
2018-03-01T06:51:05.618Z,18.8
2018-03-01T06:52:07.836Z,18.5
2018-03-01T06:53:09.483Z,17.9
2018-03-01T06:54:11.118Z,18.6
2018-03-01T06:55:12.791Z,19.2
2018-03-01T06:56:14.420Z,18.7
2018-03-01T06:57:16.046Z,19.5
2018-03-01T06:58:17.691Z,17.4
2018-03-01T06:59:19.324Z,18.5
2018-03-01T07:00:20.946Z,18.2
2018-03-01T07:01:22.571Z,17.8
2018-03-01T07:02:24.197Z,18.0
2018-03-01T07:03:25.827Z,17.7
2018-03-01T07:04:27.448Z,19.6
2018-03-01T07:05:29.076Z,18.4
2018-03-01T07:06:30.707Z,18.8
2018-03-01T07:07:32.347Z,17.8
2018-03-01T07:08:34.003Z,18.2
2018-03-01T07:09:38.534Z,18.5
2018-03-01T07:10:40.148Z,18.4
2018-03-01T07:11:41.812Z,17.1
2018-03-01T07:12:43.456Z,17.7
2018-03-01T07:13:45.091Z,17.5
2018-03-01T07:14:46.734Z,17.5
2018-03-01T07:15:48.370Z,17.0
2018-03-01T07:16:50.003Z,18.1
2018-03-01T07:17:51.629Z,18.2
2018-03-01T07:18:53.276Z,17.0
2018-03-01T07:19:54.918Z,17.7
2018-03-01T07:20:56.567Z,17.9
2018-03-01T07:21:58.192Z,17.5
2018-03-01T07:22:59.870Z,18.3
2018-03-01T07:24:01.461Z,19.2
2018-03-01T07:25:03.088Z,18.2
2018-03-01T07:26:04.715Z,18.0
2018-03-01T07:27:06.355Z,18.9
2018-03-01T07:28:07.995Z,16.8
2018-03-01T07:29:09.630Z,16.5
2018-03-01T07:30:11.273Z,17.4
2018-03-01T07:31:12.900Z,17.6
2018-03-01T07:32:14.536Z,18.2
2018-03-01T07:33:16.170Z,17.9
2018-03-01T07:34:17.820Z,16.8
2018-03-01T07:35:19.556Z,17.9
2018-03-01T07:36:21.185Z,18.3
2018-03-01T07:37:22.859Z,17.9
2018-03-01T07:38:24.495Z,18.6
2018-03-01T07:39:26.135Z,18.1
2018-03-01T07:40:27.763Z,17.5
2018-03-01T07:41:29.458Z,18.7
2018-03-01T07:42:31.115Z,17.8
2018-03-01T07:43:32.778Z,17.8
2018-03-01T07:44:34.424Z,17.1
2018-03-01T07:45:36.086Z,18.1
2018-03-01T07:46:37.727Z,17.4
2018-03-01T07:47:39.360Z,16.6
2018-03-01T07:48:41.006Z,16.7
2018-03-01T07:49:42.650Z,17.6
2018-03-01T07:50:44.308Z,18.0
2018-03-01T07:51:45.951Z,16.9
2018-03-01T07:52:47.589Z,17.1
2018-03-01T07:53:49.231Z,16.4
2018-03-01T07:54:50.879Z,17.4
2018-03-01T07:55:52.528Z,17.3
2018-03-01T07:56:54.222Z,16.7
2018-03-01T07:57:55.870Z,16.1
2018-03-01T07:58:57.503Z,16.9
2018-03-01T07:59:59.142Z,17.4
2018-03-01T08:01:00.775Z,17.0
2018-03-01T08:02:02.404Z,17.2
2018-03-01T08:03:04.036Z,16.1
2018-03-01T08:04:05.669Z,16.8
2018-03-01T08:05:07.301Z,17.2
2018-03-01T08:06:08.975Z,16.3
2018-03-01T08:07:10.616Z,16.4
2018-03-01T08:08:12.248Z,15.6
2018-03-01T08:09:13.895Z,16.0
2018-03-01T08:10:15.527Z,15.4
2018-03-01T08:11:17.275Z,16.5
2018-03-01T08:12:18.875Z,16.4
2018-03-01T08:13:20.508Z,17.4
2018-03-01T08:14:22.219Z,16.0
2018-03-01T08:15:23.860Z,16.9
2018-03-01T08:16:25.524Z,15.6
2018-03-01T08:17:27.154Z,15.9
2018-03-01T08:18:28.798Z,16.6
2018-03-01T08:19:30.434Z,16.7
2018-03-01T08:20:32.060Z,16.5
2018-03-01T08:21:33.687Z,15.8
2018-03-01T08:22:35.329Z,15.9
2018-03-01T08:23:36.973Z,15.6
2018-03-01T08:24:38.623Z,15.4
2018-03-01T08:25:40.284Z,16.2
2018-03-01T08:26:41.931Z,15.9
2018-03-01T08:27:43.589Z,16.4
2018-03-01T08:28:45.216Z,15.3
2018-03-01T08:29:46.883Z,15.8
2018-03-01T08:30:48.523Z,16.3
2018-03-01T08:31:50.205Z,15.9
2018-03-01T08:32:51.862Z,15.7
2018-03-01T08:33:53.554Z,16.2
2018-03-01T08:34:55.237Z,15.5
2018-03-01T08:35:56.877Z,16.2
2018-03-01T08:36:58.533Z,15.1
2018-03-01T08:38:00.194Z,15.9
2018-03-01T08:39:01.887Z,15.0
2018-03-01T08:40:03.518Z,15.3
2018-03-01T08:41:05.150Z,15.7
2018-03-01T08:42:06.789Z,14.9
2018-03-01T08:43:08.478Z,15.7
2018-03-01T08:44:10.136Z,15.8
2018-03-01T08:45:11.770Z,15.9
2018-03-01T08:46:13.421Z,15.4
2018-03-01T08:47:15.055Z,15.2
2018-03-01T08:48:16.687Z,15.1
2018-03-01T08:49:18.324Z,14.9
2018-03-01T08:50:19.949Z,14.9
2018-03-01T08:51:21.589Z,14.0
2018-03-01T08:52:23.220Z,14.6
2018-03-01T08:53:24.866Z,13.9
2018-03-01T08:54:26.563Z,15.3
2018-03-01T08:55:28.202Z,14.7
2018-03-01T08:56:29.833Z,14.7
2018-03-01T08:57:31.481Z,14.1
2018-03-01T08:58:33.149Z,13.7
2018-03-01T08:59:34.837Z,14.0
2018-03-01T09:00:36.523Z,14.4
2018-03-01T09:01:38.177Z,15.7
2018-03-01T09:02:39.838Z,14.2
2018-03-01T09:03:41.472Z,13.8
2018-03-01T09:04:43.108Z,14.8
2018-03-01T09:05:44.797Z,14.4
2018-03-01T09:06:46.430Z,14.7
2018-03-01T09:07:48.071Z,13.7
2018-03-01T09:08:49.728Z,13.7
2018-03-01T09:09:51.378Z,13.6
2018-03-01T09:10:53.111Z,13.4
2018-03-01T09:11:54.763Z,14.7
2018-03-01T09:12:56.427Z,13.3
2018-03-01T09:13:58.120Z,13.5
2018-03-01T09:14:59.770Z,13.6
2018-03-01T09:16:01.435Z,13.8
2018-03-01T09:17:03.146Z,12.9
2018-03-01T09:18:04.782Z,12.8
2018-03-01T09:19:06.415Z,13.5
2018-03-01T09:20:08.049Z,12.9
2018-03-01T09:21:09.698Z,13.2
2018-03-01T09:22:11.335Z,13.1
2018-03-01T09:23:12.974Z,13.3
2018-03-01T09:24:14.601Z,13.4
2018-03-01T09:25:16.259Z,13.5
2018-03-01T09:26:17.901Z,13.1
2018-03-01T09:27:19.550Z,13.7
2018-03-01T09:28:21.223Z,14.0
2018-03-01T09:29:22.853Z,13.3
2018-03-01T09:30:24.522Z,13.2
2018-03-01T09:31:26.211Z,12.7
2018-03-01T09:32:27.909Z,12.7
2018-03-01T09:33:29.598Z,13.3
2018-03-01T09:34:31.272Z,12.9
2018-03-01T09:35:32.984Z,13.2
2018-03-01T09:36:34.723Z,12.5
2018-03-01T09:37:36.376Z,12.3
2018-03-01T09:38:38.010Z,12.3
2018-03-01T09:39:39.705Z,12.3
2018-03-01T09:40:41.367Z,13.0
2018-03-01T09:41:43.093Z,12.0
2018-03-01T09:42:44.816Z,12.7
2018-03-01T09:43:46.509Z,12.2
2018-03-01T09:44:48.157Z,12.9
2018-03-01T09:45:49.831Z,12.1
2018-03-01T09:46:51.483Z,12.6
2018-03-01T09:47:53.135Z,11.7
2018-03-01T09:48:54.793Z,11.6
2018-03-01T09:49:56.435Z,12.0
2018-03-01T09:50:58.112Z,11.1
2018-03-01T09:51:59.841Z,12.1
2018-03-01T09:53:01.501Z,11.3
2018-03-01T09:54:03.190Z,11.0
2018-03-01T09:55:04.864Z,12.2
2018-03-01T09:56:06.509Z,12.0
2018-03-01T09:57:08.146Z,11.8
2018-03-01T09:58:09.788Z,12.3
2018-03-01T09:59:11.520Z,12.6
2018-03-01T10:00:13.155Z,12.4
2018-03-01T10:01:14.799Z,12.9
2018-03-01T10:02:16.436Z,11.1
2018-03-01T10:03:18.072Z,11.7
2018-03-01T10:04:19.736Z,11.6
2018-03-01T10:05:21.366Z,11.6
2018-03-01T10:06:23.019Z,11.3
2018-03-01T10:07:24.688Z,11.1
2018-03-01T10:08:26.320Z,12.4
2018-03-01T10:09:27.962Z,11.0
2018-03-01T10:10:29.617Z,11.3
2018-03-01T10:11:31.269Z,11.0
2018-03-01T10:12:32.901Z,11.6
2018-03-01T10:13:34.536Z,11.1
2018-03-01T10:14:36.161Z,11.2
2018-03-01T10:15:37.803Z,11.3
2018-03-01T10:16:39.446Z,11.5
2018-03-01T10:17:41.078Z,11.2
2018-03-01T10:18:42.712Z,11.8
2018-03-01T10:19:44.338Z,11.0
2018-03-01T10:20:45.981Z,11.5
2018-03-01T10:21:47.614Z,11.0
2018-03-01T10:22:49.263Z,10.5
2018-03-01T10:23:50.912Z,11.4
2018-03-01T10:24:52.590Z,10.3
2018-03-01T10:25:54.224Z,11.4
2018-03-01T10:26:55.861Z,11.7
2018-03-01T10:27:57.509Z,10.7
2018-03-01T10:28:59.128Z,10.6
2018-03-01T10:30:00.759Z,10.9
2018-03-01T10:31:02.387Z,11.8
2018-03-01T10:32:04.019Z,13.5
2018-03-01T10:33:05.660Z,10.8
2018-03-01T10:34:07.325Z,10.8
2018-03-01T10:35:08.961Z,10.5
2018-03-01T10:36:10.587Z,11.6
2018-03-01T10:37:12.218Z,11.3
2018-03-01T10:38:13.846Z,10.5
2018-03-01T10:39:15.487Z,10.5
2018-03-01T10:40:17.121Z,11.0
2018-03-01T10:41:18.754Z,11.3
2018-03-01T10:42:20.414Z,11.1
2018-03-01T10:43:22.045Z,11.6
2018-03-01T10:44:23.674Z,11.2
2018-03-01T10:45:25.303Z,10.5
2018-03-01T10:46:26.933Z,11.0
2018-03-01T10:47:28.579Z,10.6
2018-03-01T10:48:30.225Z,11.3
2018-03-01T10:49:31.850Z,11.1
2018-03-01T10:50:33.484Z,10.8
2018-03-01T10:51:35.131Z,10.6
2018-03-01T10:52:36.781Z,10.3
2018-03-01T10:53:38.416Z,10.6
2018-03-01T10:54:40.128Z,10.8
2018-03-01T10:55:41.800Z,10.9
2018-03-01T10:56:43.439Z,10.3
2018-03-01T10:57:45.067Z,11.0
2018-03-01T10:58:46.721Z,10.3
2018-03-01T10:59:48.365Z,10.6
2018-03-01T11:00:50.021Z,10.9
2018-03-01T11:01:51.671Z,11.0
2018-03-01T11:02:53.298Z,10.0
2018-03-01T11:03:54.940Z,10.9
2018-03-01T11:04:56.624Z,10.5
2018-03-01T11:05:58.216Z,10.2
2018-03-01T11:06:59.851Z,10.9
2018-03-01T11:08:01.496Z,10.2
2018-03-01T11:09:03.132Z,11.5
2018-03-01T11:10:04.763Z,10.4
2018-03-01T11:11:06.395Z,10.6
2018-03-01T11:12:08.036Z,10.8
2018-03-01T11:13:09.701Z,10.5
2018-03-01T11:14:11.337Z,10.4
2018-03-01T11:15:12.973Z,11.3
2018-03-01T11:16:14.793Z,10.6
2018-03-01T11:17:16.476Z,11.2
2018-03-01T11:18:18.083Z,10.4
2018-03-01T11:19:19.777Z,10.6
2018-03-01T11:20:21.404Z,10.3
2018-03-01T11:21:23.035Z,10.9
2018-03-01T11:22:24.674Z,10.8
2018-03-01T11:23:26.309Z,10.8
2018-03-01T11:24:27.938Z,10.3
2018-03-01T11:25:29.571Z,10.7
2018-03-01T11:26:31.201Z,10.6
2018-03-01T11:27:32.861Z,10.8
2018-03-01T11:28:34.497Z,11.4
2018-03-01T11:29:36.125Z,11.1
2018-03-01T11:30:37.780Z,10.0
2018-03-01T11:31:39.418Z,10.3
2018-03-01T11:32:41.059Z,11.1
2018-03-01T11:33:42.704Z,10.4
2018-03-01T11:34:44.356Z,11.1
2018-03-01T11:35:45.963Z,10.8
2018-03-01T11:36:47.593Z,11.0
2018-03-01T11:37:49.238Z,10.6
2018-03-01T11:38:50.871Z,10.2
2018-03-01T11:39:52.503Z,10.3
2018-03-01T11:40:54.134Z,10.2
2018-03-01T11:41:55.784Z,10.4
2018-03-01T11:42:57.395Z,10.1
2018-03-01T11:43:59.037Z,10.6
2018-03-01T11:45:00.672Z,10.7
2018-03-01T11:46:02.303Z,10.2
2018-03-01T11:47:03.937Z,10.3
2018-03-01T11:48:05.578Z,10.3
2018-03-01T11:49:07.213Z,10.3
2018-03-01T11:50:08.842Z,10.4
2018-03-01T11:51:10.469Z,9.8
2018-03-01T11:52:12.107Z,10.3
2018-03-01T11:53:13.753Z,10.3
2018-03-01T11:54:15.406Z,9.9
2018-03-01T11:55:17.042Z,10.1
2018-03-01T11:56:18.670Z,9.9
2018-03-01T11:57:20.361Z,10.4
2018-03-01T11:58:21.943Z,9.7
2018-03-01T11:59:23.575Z,10.0
2018-03-01T12:00:25.225Z,10.0
2018-03-01T12:01:26.860Z,9.9
2018-03-01T12:02:28.494Z,10.1
2018-03-01T12:03:30.116Z,9.7
2018-03-01T12:04:31.749Z,10.3
2018-03-01T12:05:33.380Z,10.5
2018-03-01T12:06:35.009Z,9.7
2018-03-01T12:07:36.645Z,10.2
2018-03-01T12:08:38.285Z,9.9
2018-03-01T12:09:39.919Z,10.3
2018-03-01T12:10:41.562Z,10.7
2018-03-01T12:11:43.198Z,10.4
2018-03-01T12:12:44.828Z,9.3
2018-03-01T12:13:46.461Z,10.1
2018-03-01T12:14:48.094Z,9.6
2018-03-01T12:15:49.740Z,10.2
2018-03-01T12:16:51.371Z,9.9
2018-03-01T12:17:53.005Z,9.8
2018-03-01T12:18:54.647Z,9.9
2018-03-01T12:19:56.284Z,9.9
2018-03-01T12:20:58.022Z,9.5
2018-03-01T12:21:59.699Z,10.2
2018-03-01T12:23:01.402Z,10.2
2018-03-01T12:24:03.042Z,9.8
2018-03-01T12:25:04.714Z,9.6
2018-03-01T12:26:06.365Z,10.0
2018-03-01T12:27:07.999Z,9.7
2018-03-01T12:28:09.695Z,9.9
2018-03-01T12:29:11.276Z,10.3
2018-03-01T12:30:14.109Z,10.2
2018-03-01T12:31:15.748Z,9.9
2018-03-01T12:32:17.391Z,10.0
2018-03-01T12:33:19.041Z,9.4
2018-03-01T12:34:20.679Z,9.5
2018-03-01T12:35:22.739Z,9.8
2018-03-01T12:36:24.717Z,9.4
2018-03-01T12:37:27.109Z,9.9
2018-03-01T12:38:28.846Z,10.5
2018-03-01T12:39:30.507Z,10.1
2018-03-01T12:40:32.148Z,9.0
2018-03-01T12:41:33.786Z,10.3
2018-03-01T12:42:39.736Z,9.6
2018-03-01T12:43:41.374Z,10.0
2018-03-01T12:44:43.055Z,10.7
2018-03-01T12:45:44.835Z,9.6
2018-03-01T12:46:46.987Z,9.8
2018-03-01T12:47:48.627Z,9.7
2018-03-01T12:48:50.277Z,10.0
2018-03-01T12:49:52.155Z,10.4
2018-03-01T12:50:53.912Z,10.4
2018-03-01T12:51:55.476Z,9.6
2018-03-01T12:52:57.643Z,10.0
2018-03-01T12:53:59.726Z,9.3
2018-03-01T12:55:01.461Z,10.2
2018-03-01T12:56:04.167Z,10.4
2018-03-01T12:57:05.814Z,9.7
2018-03-01T12:58:08.570Z,10.2
2018-03-01T12:59:10.225Z,10.0
2018-03-01T13:00:11.898Z,10.0
2018-03-01T13:01:15.119Z,9.3
2018-03-01T13:02:16.785Z,10.8
2018-03-01T13:03:19.250Z,10.3
2018-03-01T13:04:20.591Z,9.7
2018-03-01T13:05:22.246Z,10.1
2018-03-01T13:06:23.947Z,10.8
2018-03-01T13:07:25.587Z,9.9
2018-03-01T13:08:27.229Z,9.6
2018-03-01T13:09:28.866Z,10.1
2018-03-01T13:10:30.517Z,10.2
2018-03-01T13:11:32.168Z,9.9
2018-03-01T13:12:34.949Z,9.7
2018-03-01T13:13:36.590Z,11.0
2018-03-01T13:14:38.228Z,10.2
2018-03-01T13:15:39.874Z,11.0
2018-03-01T13:16:41.525Z,10.2
2018-03-01T13:17:43.180Z,10.3
2018-03-01T13:18:44.824Z,10.1
2018-03-01T13:19:46.468Z,10.3
2018-03-01T13:20:48.110Z,10.2
2018-03-01T13:21:49.758Z,10.0
2018-03-01T13:22:51.404Z,10.4
2018-03-01T13:23:53.056Z,10.7
2018-03-01T13:24:54.703Z,10.5
2018-03-01T13:25:56.351Z,9.8
2018-03-01T13:26:57.990Z,10.6
2018-03-01T13:27:59.628Z,10.2
2018-03-01T13:29:01.266Z,10.0
2018-03-01T13:30:02.902Z,10.3
2018-03-01T13:31:04.597Z,10.2
2018-03-01T13:32:06.253Z,9.6
2018-03-01T13:33:07.891Z,10.0
2018-03-01T13:34:09.526Z,9.9
2018-03-01T13:35:11.162Z,10.1
2018-03-01T13:36:12.801Z,10.3
2018-03-01T13:37:14.435Z,10.1
2018-03-01T13:38:16.079Z,9.7
2018-03-01T13:39:17.721Z,10.6
2018-03-01T13:40:19.369Z,10.6
2018-03-01T13:41:21.008Z,10.2
2018-03-01T13:42:22.644Z,9.8